createdAt,value
2023-03-07T00:01:58.319Z,99053.75
2023-03-07T00:05:03.725Z,99051.78
2023-03-07T00:08:06.593Z,99050.94
2023-03-07T00:11:10.707Z,99052.66
2023-03-07T00:14:16.923Z,99052.81
2023-03-07T00:17:21.133Z,99044.75
2023-03-07T00:20:23.833Z,99043.81
2023-03-07T00:23:29.571Z,99047.44
2023-03-07T00:26:39.423Z,99047.28
2023-03-07T00:29:43.539Z,99044.59
2023-03-07T00:32:46.238Z,99042.63
2023-03-07T00:35:55.942Z,99040.81
2023-03-07T00:38:58.683Z,99032.75
2023-03-07T00:42:02.178Z,99024.13
2023-03-07T00:45:10.887Z,99040.13
2023-03-07T00:48:16.736Z,99029.31
2023-03-07T00:51:21.370Z,99019.47
2023-03-07T00:54:26.330Z,99017.78
2023-03-07T00:57:29.014Z,99021.28
2023-03-07T01:00:35.836Z,99020.28
2023-03-07T01:03:38.780Z,99022.22
2023-03-07T01:06:42.222Z,99016.06
2023-03-07T01:09:47.084Z,99002.66
2023-03-07T01:12:49.772Z,99000.75
2023-03-07T01:15:53.958Z,98990.16
2023-03-07T01:18:59.802Z,98992.84
2023-03-07T01:22:03.250Z,98987.66
2023-03-07T01:25:06.454Z,98989.47
2023-03-07T01:28:10.802Z,98986.00
2023-03-07T01:31:15.324Z,98990.69
2023-03-07T01:34:18.070Z,98986.25
2023-03-07T01:37:20.774Z,98969.47
2023-03-07T01:40:24.947Z,98967.78
2023-03-07T01:43:29.790Z,98973.47
2023-03-07T01:46:43.416Z,98967.31
2023-03-07T01:49:46.588Z,98952.25
2023-03-07T01:52:55.460Z,98958.53
2023-03-07T01:55:59.430Z,98948.81
2023-03-07T01:59:02.376Z,98947.97
2023-03-07T02:02:08.683Z,98941.84
2023-03-07T02:05:17.117Z,98932.97
2023-03-07T02:08:23.268Z,98930.56
2023-03-07T02:11:26.228Z,98928.88
2023-03-07T02:14:28.966Z,98927.41
2023-03-07T02:17:33.247Z,98930.63
2023-03-07T02:20:44.013Z,98926.00
2023-03-07T02:23:57.389Z,98927.38
2023-03-07T02:27:01.452Z,98923.91
2023-03-07T02:30:05.154Z,98925.69
2023-03-07T02:33:07.881Z,98925.03
2023-03-07T02:36:13.938Z,98927.75
2023-03-07T02:39:16.767Z,98916.16
2023-03-07T02:42:24.157Z,98921.66
2023-03-07T02:45:29.969Z,98911.94
2023-03-07T02:48:32.720Z,98928.91
2023-03-07T02:51:37.242Z,98922.66
2023-03-07T02:54:42.980Z,98924.31
2023-03-07T02:57:47.000Z,98925.41
2023-03-07T03:00:49.795Z,98918.19
2023-03-07T03:03:53.499Z,98921.78
2023-03-07T03:06:56.637Z,98914.56
2023-03-07T03:09:59.293Z,98917.41
2023-03-07T03:13:03.330Z,98913.81
2023-03-07T03:16:06.492Z,98914.78
2023-03-07T03:19:09.185Z,98902.34
2023-03-07T03:22:12.238Z,98906.59
2023-03-07T03:25:15.868Z,98898.88
2023-03-07T03:28:19.881Z,98903.34
2023-03-07T03:31:22.614Z,98903.34
2023-03-07T03:34:25.372Z,98898.16
2023-03-07T03:37:30.596Z,98904.34
2023-03-07T03:40:39.274Z,98880.84
2023-03-07T03:43:43.972Z,98917.41
2023-03-07T03:46:48.809Z,98900.47
2023-03-07T03:49:51.529Z,98907.69
2023-03-07T03:52:54.261Z,98898.88
2023-03-07T03:56:11.904Z,98893.63
2023-03-07T03:59:16.018Z,98896.19
2023-03-07T04:02:18.861Z,98872.13
2023-03-07T04:05:23.287Z,98887.88
2023-03-07T04:08:25.932Z,98861.66
2023-03-07T04:11:29.308Z,98873.41
2023-03-07T04:14:36.493Z,98865.38
2023-03-07T04:17:41.526Z,98871.53
2023-03-07T04:20:45.564Z,98867.72
2023-03-07T04:23:58.405Z,98857.88
2023-03-07T04:27:03.956Z,98858.75
2023-03-07T04:30:09.971Z,98852.53
2023-03-07T04:33:12.976Z,98861.19
2023-03-07T04:36:17.250Z,98844.63
2023-03-07T04:39:19.925Z,98846.09
2023-03-07T04:42:22.884Z,98857.75
2023-03-07T04:45:26.920Z,98841.41
2023-03-07T04:48:29.840Z,98842.63
2023-03-07T04:51:32.595Z,98842.50
2023-03-07T04:54:35.325Z,98827.28
2023-03-07T04:57:41.340Z,98834.47
2023-03-07T05:00:46.598Z,98828.16
2023-03-07T05:03:49.859Z,98833.53
2023-03-07T05:06:52.520Z,98837.69
2023-03-07T05:10:00.505Z,98828.75
2023-03-07T05:13:03.174Z,98826.03
2023-03-07T05:16:08.024Z,98826.03
2023-03-07T05:19:11.776Z,98809.78
2023-03-07T05:22:14.475Z,98817.03
2023-03-07T05:25:17.360Z,98819.78
2023-03-07T05:28:20.257Z,98819.72
2023-03-07T05:31:24.508Z,98812.47
2023-03-07T05:34:27.268Z,98804.75
2023-03-07T05:37:29.995Z,98799.63
2023-03-07T05:40:32.720Z,98801.34
2023-03-07T05:43:35.407Z,98798.06
2023-03-07T05:46:39.552Z,98811.31
2023-03-07T05:49:42.292Z,98800.50
2023-03-07T05:52:45.334Z,98797.88
2023-03-07T05:55:48.007Z,98795.38
2023-03-07T05:58:50.715Z,98798.75
2023-03-07T06:01:55.705Z,98794.25
2023-03-07T06:04:58.963Z,98785.00
2023-03-07T06:08:01.726Z,98793.09
2023-03-07T06:11:04.562Z,98788.75
2023-03-07T06:14:07.268Z,98785.88
2023-03-07T06:17:14.425Z,98781.09
2023-03-07T06:20:17.130Z,98772.13
2023-03-07T06:23:19.830Z,98775.34
2023-03-07T06:26:22.644Z,98771.72
2023-03-07T06:29:25.367Z,98776.16
2023-03-07T06:32:29.403Z,98781.41
2023-03-07T06:35:32.110Z,98778.66
2023-03-07T06:38:35.209Z,98775.13
2023-03-07T06:41:37.946Z,98775.06
2023-03-07T06:44:42.963Z,98778.66
2023-03-07T06:47:47.943Z,98777.59
2023-03-07T06:50:50.589Z,98781.88
2023-03-07T06:53:53.422Z,98775.16
2023-03-07T06:56:56.101Z,98778.31
2023-03-07T06:59:58.809Z,98786.13
2023-03-07T07:03:05.456Z,98789.31
2023-03-07T07:06:08.330Z,98790.19
2023-03-07T07:09:14.106Z,98777.50
2023-03-07T07:12:16.818Z,98790.50
2023-03-07T07:15:19.443Z,98784.53
2023-03-07T07:18:23.487Z,98780.91
2023-03-07T07:21:26.277Z,98784.13
2023-03-07T07:24:29.085Z,98795.75
2023-03-07T07:27:31.747Z,98791.28
2023-03-07T07:30:36.782Z,98787.47
2023-03-07T07:33:41.758Z,98795.44
2023-03-07T07:36:44.486Z,98787.09
2023-03-07T07:39:47.221Z,98789.19
2023-03-07T07:42:54.344Z,98786.69
2023-03-07T07:45:59.746Z,98793.28
2023-03-07T07:49:03.901Z,98787.22
2023-03-07T07:52:06.646Z,98785.25
2023-03-07T07:55:10.541Z,98777.00
2023-03-07T07:58:13.292Z,98785.16
2023-03-07T08:01:17.724Z,98784.31
2023-03-07T08:04:26.684Z,98786.03
2023-03-07T08:07:29.407Z,98786.91
2023-03-07T08:10:32.196Z,98769.91
2023-03-07T08:13:35.056Z,98769.91
2023-03-07T08:16:37.804Z,98765.78
2023-03-07T08:19:41.879Z,98771.72
2023-03-07T08:22:44.654Z,98757.72
2023-03-07T08:25:47.415Z,98757.09
2023-03-07T08:28:50.195Z,98747.09
2023-03-07T08:31:55.246Z,98740.72
2023-03-07T08:34:59.312Z,98739.00
2023-03-07T08:38:02.152Z,98741.63
2023-03-07T08:41:06.458Z,98739.91
2023-03-07T08:44:09.140Z,98744.41
2023-03-07T08:47:13.444Z,98741.19
2023-03-07T08:50:18.698Z,98732.94
2023-03-07T08:53:24.573Z,98734.25
2023-03-07T08:56:30.514Z,98739.88
2023-03-07T08:59:35.789Z,98722.53
2023-03-07T09:02:38.560Z,98723.72
2023-03-07T09:05:45.593Z,98723.03
2023-03-07T09:08:49.245Z,98720.56
2023-03-07T09:11:52.337Z,98727.44
2023-03-07T09:15:04.199Z,98715.19
2023-03-07T09:18:09.054Z,98723.97
2023-03-07T09:21:15.746Z,98712.16
2023-03-07T09:24:18.444Z,98696.72
2023-03-07T09:27:21.174Z,98706.00
2023-03-07T09:30:25.334Z,98709.81
2023-03-07T09:33:28.115Z,98693.66
2023-03-07T09:36:32.153Z,98698.56
2023-03-07T09:39:37.888Z,98703.00
2023-03-07T09:42:55.064Z,98699.75
2023-03-07T09:46:13.492Z,98696.06
2023-03-07T09:49:31.071Z,98685.47
2023-03-07T09:52:42.530Z,98677.66
2023-03-07T09:55:45.280Z,98666.59
2023-03-07T09:58:53.377Z,98668.75
2023-03-07T10:02:04.846Z,98668.28
2023-03-07T10:05:21.784Z,98665.63
2023-03-07T10:08:29.200Z,98664.47
2023-03-07T10:11:48.057Z,98654.44
2023-03-07T10:15:16.921Z,98653.41
2023-03-07T10:18:32.736Z,98646.00
2023-03-07T10:21:43.287Z,98640.38
2023-03-07T10:25:09.364Z,98638.78
2023-03-07T10:28:19.723Z,98633.75
2023-03-07T10:31:27.948Z,98629.81
2023-03-07T10:34:32.795Z,98633.63
2023-03-07T10:37:44.943Z,98633.56
2023-03-07T10:40:53.302Z,98640.03
2023-03-07T10:43:56.615Z,98609.47
2023-03-07T10:47:00.778Z,98606.88
2023-03-07T10:50:39.609Z,98602.09
2023-03-07T10:53:42.523Z,98602.31
2023-03-07T10:57:07.095Z,98587.28
2023-03-07T11:00:16.339Z,98585.75
2023-03-07T11:03:37.090Z,98580.50
2023-03-07T11:06:54.085Z,98572.84
2023-03-07T11:09:57.782Z,98584.91
2023-03-07T11:13:08.762Z,98587.94
2023-03-07T11:16:20.003Z,98578.09
2023-03-07T11:19:36.000Z,98581.75
2023-03-07T11:22:38.700Z,98585.88
2023-03-07T11:25:41.547Z,98582.81
2023-03-07T11:28:45.772Z,98569.81
2023-03-07T11:31:57.076Z,98569.06
2023-03-07T11:35:07.136Z,98570.81
2023-03-07T11:38:19.316Z,98566.94
2023-03-07T11:41:27.741Z,98562.50
2023-03-07T11:44:38.802Z,98580.66
2023-03-07T11:47:52.651Z,98559.81
2023-03-07T11:50:58.318Z,98555.16
2023-03-07T11:54:08.921Z,98550.81
2023-03-07T11:57:20.345Z,98555.16
2023-03-07T12:00:32.349Z,98538.19
2023-03-07T12:04:13.719Z,98528.53
2023-03-07T12:07:33.562Z,98538.50
2023-03-07T12:10:51.480Z,98530.16
2023-03-07T12:14:02.884Z,98527.47
2023-03-07T12:17:21.375Z,98526.59
2023-03-07T12:20:37.831Z,98517.19
2023-03-07T12:23:43.344Z,98516.66
2023-03-07T12:26:56.445Z,98518.38
2023-03-07T12:30:03.703Z,98513.53
2023-03-07T12:33:12.367Z,98511.88
2023-03-07T12:36:23.821Z,98499.53
2023-03-07T12:39:31.877Z,98500.13
2023-03-07T12:42:41.398Z,98506.72
2023-03-07T12:45:48.417Z,98480.88
2023-03-07T12:48:57.911Z,98483.84
2023-03-07T12:52:05.416Z,98476.47
2023-03-07T12:55:19.215Z,98476.44
2023-03-07T12:58:38.719Z,98479.06
2023-03-07T13:01:47.231Z,98473.53
2023-03-07T13:04:51.624Z,98463.69
2023-03-07T13:07:55.199Z,98473.34
2023-03-07T13:10:58.169Z,98465.09
2023-03-07T13:14:02.227Z,98462.94
2023-03-07T13:17:05.002Z,98462.13
2023-03-07T13:20:38.863Z,98450.53
2023-03-07T13:23:41.704Z,98459.94
2023-03-07T13:26:46.113Z,98454.41
2023-03-07T13:30:18.051Z,98454.53
2023-03-07T13:33:30.083Z,98448.38
2023-03-07T13:36:36.282Z,98449.06
2023-03-07T13:39:39.598Z,98457.34
2023-03-07T13:42:46.522Z,98446.84
2023-03-07T13:45:52.845Z,98439.78
2023-03-07T13:49:05.446Z,98451.63
2023-03-07T13:52:27.138Z,98454.53
2023-03-07T13:55:38.974Z,98448.97
2023-03-07T13:58:47.505Z,98439.94
2023-03-07T14:01:58.631Z,98446.34
2023-03-07T14:05:04.475Z,98449.00
2023-03-07T14:08:15.290Z,98453.16
2023-03-07T14:11:25.764Z,98447.69
2023-03-07T14:14:53.646Z,98468.03
2023-03-07T14:18:15.371Z,98453.84
2023-03-07T14:21:27.934Z,98459.72
2023-03-07T14:24:48.292Z,98465.56
2023-03-07T14:27:56.097Z,98472.66
2023-03-07T14:31:00.584Z,98475.31
2023-03-07T14:34:16.252Z,98467.59
2023-03-07T14:37:26.197Z,98480.47
2023-03-07T14:40:36.270Z,98482.84
2023-03-07T14:43:50.729Z,98495.00
2023-03-07T14:47:06.953Z,98489.69
2023-03-07T14:50:14.210Z,98494.19
2023-03-07T14:53:20.927Z,98504.63
2023-03-07T14:56:28.276Z,98496.72
2023-03-07T14:59:31.083Z,98491.66
2023-03-07T15:02:33.859Z,98512.19
2023-03-07T15:05:38.350Z,98510.88
2023-03-07T15:08:41.044Z,98519.28
2023-03-07T15:11:52.204Z,98510.50
2023-03-07T15:14:57.901Z,98495.69
2023-03-07T15:18:06.752Z,98508.41
2023-03-07T15:21:17.143Z,98507.75
2023-03-07T15:24:22.808Z,98510.16
2023-03-07T15:27:30.584Z,98502.84
2023-03-07T15:30:35.963Z,98508.63
2023-03-07T15:33:39.031Z,98508.25
2023-03-07T15:36:41.671Z,98506.50
2023-03-07T15:39:44.397Z,98504.09
2023-03-07T15:42:53.331Z,98516.72
2023-03-07T15:46:03.852Z,98527.50
2023-03-07T15:49:07.121Z,98524.44
2023-03-07T15:52:22.318Z,98520.09
2023-03-07T15:55:27.327Z,98510.47
2023-03-07T15:58:32.056Z,98523.19
2023-03-07T16:01:34.764Z,98524.13
2023-03-07T16:04:39.930Z,98523.56
2023-03-07T16:07:42.845Z,98530.00
2023-03-07T16:10:53.145Z,98523.75
2023-03-07T16:13:57.204Z,98520.19
2023-03-07T16:17:03.363Z,98518.16
2023-03-07T16:20:15.235Z,98514.31
2023-03-07T16:23:17.932Z,98515.19
2023-03-07T16:26:22.791Z,98511.81
2023-03-07T16:29:28.376Z,98506.34
2023-03-07T16:32:31.149Z,98512.78
2023-03-07T16:35:33.999Z,98512.56
2023-03-07T16:38:36.812Z,98509.03
2023-03-07T16:41:40.418Z,98520.00
2023-03-07T16:44:44.554Z,98509.84
2023-03-07T16:47:48.006Z,98507.00
2023-03-07T16:50:50.689Z,98509.78
2023-03-07T16:53:54.252Z,98512.84
2023-03-07T16:57:13.468Z,98368.03
2023-03-07T17:00:20.633Z,98526.47
2023-03-07T17:03:23.393Z,98518.84
2023-03-07T17:06:38.533Z,98526.25
2023-03-07T17:09:42.105Z,98523.06
2023-03-07T17:12:45.257Z,98515.59
2023-03-07T17:15:50.072Z,98538.72
2023-03-07T17:18:56.443Z,98551.47
2023-03-07T17:22:01.335Z,98546.78
2023-03-07T17:25:05.386Z,98555.03
2023-03-07T17:28:11.711Z,98550.03
2023-03-07T17:31:15.921Z,98552.56
2023-03-07T17:34:25.829Z,98558.56
2023-03-07T17:37:30.078Z,98563.94
2023-03-07T17:40:32.711Z,98559.59
2023-03-07T17:43:35.542Z,98559.81
2023-03-07T17:46:39.652Z,98551.88
2023-03-07T17:49:42.369Z,98554.75
2023-03-07T17:52:45.427Z,98568.22
2023-03-07T17:55:57.961Z,98575.53
2023-03-07T17:59:01.849Z,98582.53
2023-03-07T18:02:06.221Z,98576.47
2023-03-07T18:05:13.413Z,98573.88
2023-03-07T18:08:25.380Z,98583.75
2023-03-07T18:11:28.758Z,98596.09
2023-03-07T18:14:31.656Z,98586.38
2023-03-07T18:17:47.448Z,98584.34
2023-03-07T18:20:57.848Z,98593.59
2023-03-07T18:24:00.564Z,98588.78
2023-03-07T18:27:03.482Z,98598.81
2023-03-07T18:30:08.459Z,98594.00
2023-03-07T18:33:12.478Z,98592.44
2023-03-07T18:36:16.977Z,98589.00
2023-03-07T18:39:20.120Z,98586.38
2023-03-07T18:42:23.463Z,98596.09
2023-03-07T18:45:28.261Z,98579.75
2023-03-07T18:48:32.397Z,98587.66
2023-03-07T18:51:35.080Z,98594.97
2023-03-07T18:54:37.734Z,98591.47
2023-03-07T18:57:40.443Z,98597.81
2023-03-07T19:00:43.180Z,98598.69
2023-03-07T19:03:49.563Z,98591.75
2023-03-07T19:06:52.451Z,98598.69
2023-03-07T19:09:55.274Z,98590.81
2023-03-07T19:12:57.970Z,98587.91
2023-03-07T19:16:05.029Z,98593.66
2023-03-07T19:19:09.077Z,98593.66
2023-03-07T19:22:12.852Z,98596.63
2023-03-07T19:25:15.734Z,98599.91
2023-03-07T19:28:18.686Z,98600.06
2023-03-07T19:31:22.889Z,98585.53
2023-03-07T19:34:27.088Z,98596.78
2023-03-07T19:37:30.138Z,98604.72
2023-03-07T19:40:32.817Z,98600.06
2023-03-07T19:43:35.516Z,98614.53
2023-03-07T19:46:38.397Z,98604.50
2023-03-07T19:49:42.388Z,98616.06
2023-03-07T19:52:45.253Z,98611.56
2023-03-07T19:55:48.413Z,98614.31
2023-03-07T19:58:51.467Z,98610.69
2023-03-07T20:01:54.993Z,98623.19
2023-03-07T20:05:01.339Z,98619.72
2023-03-07T20:08:04.033Z,98634.13
2023-03-07T20:11:12.098Z,98627.88
2023-03-07T20:14:15.166Z,98630.66
2023-03-07T20:17:20.949Z,98626.91
2023-03-07T20:20:24.965Z,98627.19
2023-03-07T20:23:27.644Z,98623.72
2023-03-07T20:26:32.505Z,98612.16
2023-03-07T20:29:35.507Z,98624.16
2023-03-07T20:32:38.280Z,98614.59
2023-03-07T20:35:42.474Z,98629.97
2023-03-07T20:38:48.482Z,98624.13
2023-03-07T20:41:57.261Z,98627.25
2023-03-07T20:45:02.674Z,98638.09
2023-03-07T20:48:05.515Z,98630.13
2023-03-07T20:51:16.518Z,98640.72
2023-03-07T20:54:20.533Z,98623.25
2023-03-07T20:57:23.249Z,98648.88
2023-03-07T21:00:26.099Z,98656.16
2023-03-07T21:03:29.530Z,98642.47
2023-03-07T21:06:34.418Z,98646.88
2023-03-07T21:09:37.972Z,98647.50
2023-03-07T21:12:40.685Z,98640.94
2023-03-07T21:15:45.503Z,98640.72
2023-03-07T21:18:48.506Z,98661.09
2023-03-07T21:21:55.044Z,98666.66
2023-03-07T21:24:57.728Z,98654.69
2023-03-07T21:28:02.586Z,98659.28
2023-03-07T21:31:07.260Z,98653.75
2023-03-07T21:34:14.625Z,98660.88
2023-03-07T21:37:18.804Z,98652.88
2023-03-07T21:40:22.087Z,98646.69
2023-03-07T21:43:25.210Z,98652.34
2023-03-07T21:46:28.282Z,98628.47
2023-03-07T21:49:31.649Z,98656.06
2023-03-07T21:52:35.725Z,98654.97
2023-03-07T21:55:38.454Z,98658.06
2023-03-07T21:58:42.372Z,98652.84
2023-03-07T22:01:48.281Z,98665.34
2023-03-07T22:04:51.045Z,98666.22
2023-03-07T22:07:55.157Z,98663.53
2023-03-07T22:11:00.411Z,98664.31
2023-03-07T22:14:04.114Z,98671.41
2023-03-07T22:17:06.838Z,98669.53
2023-03-07T22:20:11.128Z,98681.00
2023-03-07T22:23:15.710Z,98692.63
2023-03-07T22:26:18.404Z,98689.81
2023-03-07T22:29:21.127Z,98685.31
2023-03-07T22:32:24.247Z,98687.25
2023-03-07T22:35:27.303Z,98683.59
2023-03-07T22:38:31.413Z,98692.50
2023-03-07T22:41:34.690Z,98687.94
2023-03-07T22:44:37.512Z,98709.44
2023-03-07T22:47:40.590Z,98693.38
2023-03-07T22:50:43.234Z,98702.88
2023-03-07T22:53:47.812Z,98706.94
2023-03-07T22:56:57.786Z,98697.81
2023-03-07T23:00:00.692Z,98704.06
2023-03-07T23:03:10.861Z,98710.16
2023-03-07T23:06:14.201Z,98708.78
2023-03-07T23:09:18.316Z,98691.69
2023-03-07T23:12:20.974Z,98692.97
2023-03-07T23:15:25.044Z,98713.97
2023-03-07T23:18:27.726Z,98729.16
2023-03-07T23:21:32.883Z,98718.59
2023-03-07T23:24:37.538Z,98681.72
2023-03-07T23:27:40.389Z,98720.13
2023-03-07T23:30:43.118Z,98731.69
2023-03-07T23:33:49.395Z,98731.84
2023-03-07T23:36:52.102Z,98731.69
2023-03-07T23:40:05.120Z,98731.84
2023-03-07T23:43:08.620Z,98723.84
2023-03-07T23:46:11.738Z,98730.91
2023-03-07T23:49:32.016Z,98737.22
2023-03-07T23:52:34.755Z,98744.34
2023-03-07T23:55:41.474Z,98736.34
2023-03-07T23:58:47.397Z,98740.72
